createdAt,value
2017-06-12T00:01:50.634Z,80.20
2017-06-12T00:04:18.401Z,81.60
2017-06-12T00:06:45.982Z,80.00
2017-06-12T00:09:13.481Z,79.90
2017-06-12T00:11:40.998Z,84.30
2017-06-12T00:14:08.487Z,83.60
2017-06-12T00:16:36.000Z,84.50
2017-06-12T00:19:03.511Z,84.70
2017-06-12T00:21:31.008Z,83.20
2017-06-12T00:23:58.528Z,82.90
2017-06-12T00:26:26.028Z,87.60
2017-06-12T00:28:54.313Z,86.80
2017-06-12T00:31:21.812Z,86.80
2017-06-12T00:33:49.317Z,89.90
2017-06-12T00:36:17.601Z,86.40
2017-06-12T00:38:45.105Z,86.30
2017-06-12T00:41:12.872Z,84.10
2017-06-12T00:43:40.380Z,84.10
2017-06-12T00:46:07.875Z,84.20
2017-06-12T00:48:35.388Z,84.30
2017-06-12T00:51:03.645Z,90.20
2017-06-12T00:53:31.460Z,90.20
2017-06-12T00:55:58.964Z,88.20
2017-06-12T00:58:26.473Z,87.70
2017-06-12T01:00:53.992Z,81.70
2017-06-12T01:03:21.490Z,85.00
2017-06-12T01:05:49.258Z,90.00
2017-06-12T01:08:16.766Z,90.80
2017-06-12T01:10:44.260Z,90.60
2017-06-12T01:13:11.784Z,89.50
2017-06-12T01:15:39.290Z,91.70
2017-06-12T01:18:06.793Z,92.40
2017-06-12T01:20:34.330Z,91.70
2017-06-12T01:23:01.837Z,90.20
2017-06-12T01:25:29.342Z,90.10
2017-06-12T01:27:56.853Z,90.20
2017-06-12T01:30:24.346Z,89.00
2017-06-12T01:32:51.868Z,88.70
2017-06-12T01:35:19.363Z,90.60
2017-06-12T01:37:46.864Z,91.10
2017-06-12T01:40:14.371Z,90.60
2017-06-12T01:42:41.873Z,91.10
2017-06-12T01:45:09.669Z,91.00
2017-06-12T01:47:37.163Z,91.00
2017-06-12T01:50:04.664Z,91.50
2017-06-12T01:52:32.178Z,91.30
2017-06-12T01:54:59.676Z,90.70
2017-06-12T01:57:27.225Z,90.20
2017-06-12T01:59:54.711Z,90.90
2017-06-12T02:02:22.208Z,90.90
2017-06-12T02:04:50.508Z,91.40
2017-06-12T02:07:18.013Z,91.40
2017-06-12T02:09:45.785Z,91.10
2017-06-12T02:12:13.288Z,91.20
2017-06-12T02:14:40.784Z,91.70
2017-06-12T02:17:08.289Z,91.30
2017-06-12T02:19:35.796Z,90.70
2017-06-12T02:22:03.316Z,90.10
2017-06-12T02:24:30.828Z,92.60
2017-06-12T02:26:58.328Z,92.70
2017-06-12T02:29:25.846Z,93.00
2017-06-12T02:31:53.354Z,92.50
2017-06-12T02:34:21.129Z,93.30
2017-06-12T02:36:48.626Z,92.50
2017-06-12T02:39:16.140Z,91.40
2017-06-12T02:41:43.637Z,91.90
2017-06-12T02:44:11.146Z,92.30
2017-06-12T02:46:39.753Z,92.50
2017-06-12T02:49:07.252Z,92.40
2017-06-12T02:51:34.748Z,91.90
2017-06-12T02:54:02.260Z,92.30
2017-06-12T02:56:29.748Z,91.30
2017-06-12T02:58:57.277Z,91.20
2017-06-12T03:01:24.776Z,90.60
2017-06-12T03:03:52.265Z,90.40
2017-06-12T03:06:19.781Z,90.40
2017-06-12T03:11:24.141Z,90.70
2017-06-12T03:13:51.641Z,90.60
2017-06-12T03:16:19.485Z,90.90
2017-06-12T03:18:46.976Z,91.10
2017-06-12T03:21:14.460Z,91.20
2017-06-12T03:23:41.960Z,91.20
2017-06-12T03:26:09.461Z,91.60
2017-06-12T03:28:37.220Z,91.10
2017-06-12T03:31:04.709Z,91.50
2017-06-12T03:33:32.217Z,91.80
2017-06-12T03:35:59.724Z,91.60
2017-06-12T03:38:27.219Z,91.70
2017-06-12T03:40:54.752Z,91.70
2017-06-12T03:43:22.253Z,91.80
2017-06-12T03:45:49.751Z,91.70
2017-06-12T03:48:17.249Z,91.70
2017-06-12T03:50:45.521Z,91.40
2017-06-12T03:53:14.145Z,91.30
2017-06-12T03:55:41.645Z,91.30
2017-06-12T03:58:09.145Z,91.60
2017-06-12T04:00:36.652Z,91.20
2017-06-12T04:03:04.156Z,91.00
2017-06-12T04:05:31.924Z,90.70
2017-06-12T04:07:59.423Z,90.50
2017-06-12T04:10:26.925Z,90.30
2017-06-12T04:12:54.433Z,89.80
2017-06-12T04:15:21.928Z,89.30
2017-06-12T04:17:49.442Z,88.70
2017-06-12T04:20:16.943Z,89.30
2017-06-12T04:22:44.446Z,89.00
2017-06-12T04:25:11.966Z,88.00
2017-06-12T04:27:40.242Z,88.90
2017-06-12T04:30:07.861Z,89.00
2017-06-12T04:32:35.356Z,89.00
2017-06-12T04:35:02.863Z,89.00
2017-06-12T04:37:30.377Z,89.00
2017-06-12T04:39:57.904Z,89.50
2017-06-12T04:42:25.436Z,89.70
2017-06-12T04:44:52.949Z,89.90
2017-06-12T04:47:20.441Z,90.00
2017-06-12T04:49:48.721Z,89.80
2017-06-12T04:52:16.229Z,89.30
2017-06-12T04:54:43.970Z,89.10
2017-06-12T04:57:11.474Z,88.50
2017-06-12T04:59:38.964Z,89.00
2017-06-12T05:02:06.472Z,88.40
2017-06-12T05:04:35.116Z,88.80
2017-06-12T05:07:04.533Z,89.40
2017-06-12T05:09:33.681Z,90.00
2017-06-12T05:12:01.177Z,90.20
2017-06-12T05:14:28.688Z,90.20
2017-06-12T05:16:56.187Z,89.90
2017-06-12T05:19:23.720Z,89.60
2017-06-12T05:21:51.221Z,89.70
2017-06-12T05:24:18.726Z,89.70
2017-06-12T05:26:46.268Z,89.20
2017-06-12T05:29:13.761Z,89.40
2017-06-12T05:31:41.284Z,89.50
2017-06-12T05:34:08.783Z,89.90
2017-06-12T05:36:36.282Z,89.30
2017-06-12T05:39:03.806Z,89.00
2017-06-12T05:41:32.445Z,89.30
2017-06-12T05:44:00.197Z,90.00
2017-06-12T05:46:27.700Z,90.00
2017-06-12T05:48:55.285Z,90.20
2017-06-12T05:51:23.942Z,89.60
2017-06-12T05:53:52.213Z,90.00
2017-06-12T05:56:20.376Z,89.40
2017-06-12T05:58:47.888Z,89.50
2017-06-12T06:01:15.392Z,89.80
2017-06-12T06:03:44.354Z,89.50
2017-06-12T06:06:11.851Z,89.90
2017-06-12T06:08:39.356Z,88.60
2017-06-12T06:11:07.647Z,89.00
2017-06-12T06:13:35.148Z,89.00
2017-06-12T06:16:02.980Z,86.90
2017-06-12T06:18:30.492Z,84.40
2017-06-12T06:20:58.021Z,85.30
2017-06-12T06:23:25.549Z,85.00
2017-06-12T06:25:54.186Z,93.70
2017-06-12T06:28:21.712Z,92.90
2017-06-12T06:30:49.225Z,86.30
2017-06-12T06:33:16.761Z,86.10
2017-06-12T06:35:45.678Z,85.60
2017-06-12T06:38:13.181Z,86.00
2017-06-12T06:40:40.680Z,85.00
2017-06-12T06:43:08.197Z,83.10
2017-06-12T06:45:35.696Z,79.10
2017-06-12T06:48:03.236Z,77.90
2017-06-12T06:50:30.732Z,76.60
2017-06-12T06:52:58.233Z,75.30
2017-06-12T06:55:25.737Z,76.40
2017-06-12T06:57:54.044Z,75.70
2017-06-12T07:00:22.332Z,74.20
2017-06-12T07:02:50.993Z,73.90
2017-06-12T07:05:18.497Z,74.30
2017-06-12T07:07:45.998Z,74.80
2017-06-12T07:10:14.638Z,77.00
2017-06-12T07:12:42.171Z,77.60
2017-06-12T07:15:09.684Z,75.40
2017-06-12T07:17:37.172Z,74.60
2017-06-12T07:20:04.704Z,74.90
2017-06-12T07:22:32.215Z,74.30
2017-06-12T07:25:00.513Z,73.10
2017-06-12T07:27:28.012Z,73.00
2017-06-12T07:29:55.526Z,72.60
2017-06-12T07:32:23.044Z,72.20
2017-06-12T07:34:50.576Z,73.30
2017-06-12T07:37:18.091Z,72.70
2017-06-12T07:39:45.593Z,72.80
2017-06-12T07:42:13.367Z,72.20
2017-06-12T07:44:40.864Z,71.50
2017-06-12T07:47:08.361Z,71.60
2017-06-12T07:49:35.892Z,70.90
2017-06-12T07:52:03.395Z,68.40
2017-06-12T07:54:31.255Z,69.40
2017-06-12T07:56:58.757Z,69.70
2017-06-12T07:59:27.033Z,70.40
2017-06-12T08:01:54.553Z,69.90
2017-06-12T08:04:22.056Z,68.50
2017-06-12T08:06:49.840Z,68.20
2017-06-12T08:09:18.099Z,68.70
2017-06-12T08:11:46.377Z,68.00
2017-06-12T08:14:14.650Z,68.10
2017-06-12T08:16:42.151Z,68.00
2017-06-12T08:19:09.656Z,67.50
2017-06-12T08:21:37.155Z,68.20
2017-06-12T08:24:04.908Z,68.10
2017-06-12T08:26:33.196Z,68.50
2017-06-12T08:29:00.704Z,68.40
2017-06-12T08:31:28.213Z,65.30
2017-06-12T08:33:55.725Z,64.20
2017-06-12T08:36:23.265Z,62.60
2017-06-12T08:38:50.770Z,63.80
2017-06-12T08:41:18.281Z,61.60
2017-06-12T08:43:46.929Z,63.40
2017-06-12T08:46:14.452Z,61.70
2017-06-12T08:48:41.954Z,61.30
2017-06-12T08:51:09.459Z,62.60
2017-06-12T08:53:37.234Z,61.80
2017-06-12T08:56:04.737Z,61.40
2017-06-12T08:58:32.249Z,61.20
2017-06-12T09:01:00.017Z,62.60
2017-06-12T09:03:28.673Z,60.20
2017-06-12T09:05:57.316Z,60.60
2017-06-12T09:08:25.604Z,61.00
2017-06-12T09:10:53.104Z,61.00
2017-06-12T09:13:20.645Z,59.10
2017-06-12T09:15:48.445Z,60.80
2017-06-12T09:18:15.956Z,57.40
2017-06-12T09:20:43.450Z,57.70
2017-06-12T09:23:11.238Z,59.40
2017-06-12T09:25:39.882Z,61.60
2017-06-12T09:28:07.381Z,62.10
2017-06-12T09:30:34.929Z,61.70
2017-06-12T09:33:03.725Z,59.30
2017-06-12T09:35:31.236Z,59.90
2017-06-12T09:37:59.023Z,59.00
2017-06-12T09:40:26.536Z,58.70
2017-06-12T09:42:54.052Z,58.70
2017-06-12T09:45:22.712Z,57.70
2017-06-12T09:47:50.224Z,57.00
2017-06-12T09:50:17.730Z,59.00
2017-06-12T09:52:45.252Z,58.50
2017-06-12T09:55:12.748Z,55.70
2017-06-12T09:57:40.245Z,55.50
2017-06-12T10:00:07.796Z,55.10
2017-06-12T10:02:35.295Z,55.70
2017-06-12T10:05:02.817Z,53.60
2017-06-12T10:07:30.610Z,55.20
2017-06-12T10:09:58.128Z,54.40
2017-06-12T10:12:25.673Z,55.20
2017-06-12T10:14:53.199Z,55.00
2017-06-12T10:17:20.705Z,55.20
2017-06-12T10:19:48.208Z,54.20
2017-06-12T10:22:15.742Z,56.20
2017-06-12T10:24:43.245Z,56.90
2017-06-12T10:27:11.524Z,56.80
2017-06-12T10:29:39.068Z,56.70
2017-06-12T10:32:06.572Z,57.10
2017-06-12T10:34:34.084Z,54.60
2017-06-12T10:37:01.615Z,52.60
2017-06-12T10:39:29.115Z,52.40
2017-06-12T10:41:56.600Z,53.00
2017-06-12T10:44:24.370Z,55.10
2017-06-12T10:46:51.876Z,52.90
2017-06-12T10:49:19.377Z,51.60
2017-06-12T10:51:47.168Z,52.00
2017-06-12T10:54:14.663Z,51.50
2017-06-12T10:56:42.184Z,51.30
2017-06-12T10:59:09.705Z,51.90
2017-06-12T11:01:37.197Z,52.50
2017-06-12T11:04:04.701Z,51.50
2017-06-12T11:06:32.200Z,51.40
2017-06-12T11:08:59.841Z,51.50
2017-06-12T11:11:27.350Z,52.30
2017-06-12T11:13:54.867Z,51.60
2017-06-12T11:16:22.429Z,52.60
2017-06-12T11:18:50.694Z,53.70
2017-06-12T11:21:18.989Z,54.50
2017-06-12T11:23:47.249Z,53.30
2017-06-12T11:26:14.750Z,53.30
2017-06-12T11:28:42.261Z,54.20
2017-06-12T11:31:09.769Z,52.90
2017-06-12T11:33:37.284Z,53.90
2017-06-12T11:36:05.030Z,54.00
2017-06-12T11:38:32.541Z,54.20
2017-06-12T11:41:00.041Z,56.00
2017-06-12T11:43:27.588Z,54.50
2017-06-12T11:45:55.085Z,53.40
2017-06-12T11:48:22.609Z,54.10
2017-06-12T11:50:50.137Z,54.20
2017-06-12T11:53:17.628Z,52.50
2017-06-12T11:55:45.139Z,52.40
2017-06-12T11:58:13.436Z,54.80
2017-06-12T12:00:40.975Z,54.30
2017-06-12T12:03:09.293Z,54.50
2017-06-12T12:05:36.827Z,54.40
2017-06-12T12:08:04.341Z,54.40
2017-06-12T12:10:31.872Z,54.90
2017-06-12T12:12:59.368Z,54.50
2017-06-12T12:15:27.289Z,52.50
2017-06-12T12:17:54.789Z,53.90
2017-06-12T12:20:22.284Z,51.80
2017-06-12T12:22:50.562Z,53.30
2017-06-12T12:25:18.059Z,53.40
2017-06-12T12:27:45.611Z,53.80
2017-06-12T12:30:13.105Z,54.30
2017-06-12T12:32:40.600Z,55.80
2017-06-12T12:35:08.135Z,56.00
2017-06-12T12:37:35.640Z,54.90
2017-06-12T12:40:03.443Z,54.20
2017-06-12T12:42:30.938Z,53.50
2017-06-12T12:44:59.216Z,52.40
2017-06-12T12:47:26.740Z,51.00
2017-06-12T12:49:54.241Z,51.40
2017-06-12T12:52:22.125Z,52.70
2017-06-12T12:54:49.617Z,53.00
2017-06-12T12:57:17.111Z,53.80
2017-06-12T12:59:44.641Z,53.00
2017-06-12T13:02:12.136Z,52.70
2017-06-12T13:04:39.917Z,54.50
2017-06-12T13:07:07.428Z,53.80
2017-06-12T13:09:34.924Z,54.30
2017-06-12T13:12:02.437Z,51.70
2017-06-12T13:14:29.966Z,51.80
2017-06-12T13:16:57.746Z,51.00
2017-06-12T13:19:25.240Z,52.70
2017-06-12T13:21:52.760Z,52.90
2017-06-12T13:24:20.280Z,52.90
2017-06-12T13:26:47.788Z,53.80
2017-06-12T13:29:15.616Z,53.80
2017-06-12T13:31:43.136Z,54.30
2017-06-12T13:34:10.649Z,53.40
2017-06-12T13:36:39.336Z,50.80
2017-06-12T13:39:06.852Z,51.50
2017-06-12T13:41:34.391Z,50.40
2017-06-12T13:44:01.915Z,50.70
2017-06-12T13:46:29.416Z,52.10
2017-06-12T13:48:56.922Z,51.40
2017-06-12T13:51:24.422Z,51.70
2017-06-12T13:53:51.967Z,53.50
2017-06-12T13:56:19.466Z,54.90
2017-06-12T13:58:46.965Z,54.50
2017-06-12T14:01:14.516Z,54.90
2017-06-12T14:03:42.023Z,55.00
2017-06-12T14:06:09.588Z,55.90
2017-06-12T14:08:37.114Z,56.90
2017-06-12T14:11:04.608Z,57.20
2017-06-12T14:13:32.125Z,57.00
2017-06-12T14:15:59.654Z,56.20
2017-06-12T14:18:27.437Z,56.00
2017-06-12T14:20:54.948Z,55.20
2017-06-12T14:23:22.473Z,52.80
2017-06-12T14:25:49.993Z,53.80
2017-06-12T14:28:17.508Z,51.10
2017-06-12T14:30:45.133Z,52.00
2017-06-12T14:33:12.636Z,49.30
2017-06-12T14:35:40.147Z,49.40
2017-06-12T14:38:08.453Z,49.80
2017-06-12T14:40:35.965Z,49.80
2017-06-12T14:43:03.756Z,50.00
2017-06-12T14:45:32.021Z,49.40
2017-06-12T14:47:59.519Z,49.60
2017-06-12T14:50:27.067Z,49.80
2017-06-12T14:52:54.566Z,50.30
2017-06-12T14:55:22.374Z,50.60
2017-06-12T14:57:49.900Z,52.00
2017-06-12T15:00:17.403Z,50.60
2017-06-12T15:02:44.914Z,50.10
2017-06-12T15:05:12.414Z,49.50
2017-06-12T15:07:40.165Z,50.60
2017-06-12T15:10:07.661Z,51.20
2017-06-12T15:12:35.156Z,51.40
2017-06-12T15:15:02.681Z,49.70
2017-06-12T15:17:30.193Z,50.20
2017-06-12T15:19:58.004Z,50.00
2017-06-12T15:22:25.500Z,50.90
2017-06-12T15:24:53.013Z,50.00
2017-06-12T15:27:20.519Z,49.50
2017-06-12T15:29:48.017Z,50.00
2017-06-12T15:32:16.349Z,50.30
2017-06-12T15:34:43.870Z,50.30
2017-06-12T15:37:11.765Z,50.10
2017-06-12T15:39:39.280Z,50.80
2017-06-12T15:42:07.572Z,51.30
2017-06-12T15:44:35.102Z,51.40
2017-06-12T15:47:02.592Z,50.00
2017-06-12T15:49:30.118Z,50.90
2017-06-12T15:51:57.624Z,51.00
2017-06-12T15:54:25.141Z,51.60
2017-06-12T15:56:52.673Z,51.10
2017-06-12T15:59:20.185Z,51.40
2017-06-12T16:01:47.686Z,50.50
2017-06-12T16:04:15.202Z,51.60
2017-06-12T16:06:42.701Z,51.00
2017-06-12T16:09:10.560Z,51.60
2017-06-12T16:11:38.088Z,51.60
2017-06-12T16:14:06.367Z,52.10
2017-06-12T16:16:33.877Z,52.00
2017-06-12T16:19:01.384Z,51.70
2017-06-12T16:21:29.009Z,52.20
2017-06-12T16:23:56.505Z,51.00
2017-06-12T16:26:24.773Z,52.80
2017-06-12T16:28:53.069Z,53.30
2017-06-12T16:31:20.577Z,53.20
2017-06-12T16:33:48.124Z,52.00
2017-06-12T16:36:15.620Z,53.50
2017-06-12T16:38:43.914Z,53.20
2017-06-12T16:41:12.185Z,53.50
2017-06-12T16:43:39.681Z,53.40
2017-06-12T16:46:07.473Z,53.60
2017-06-12T16:48:34.993Z,54.70
2017-06-12T16:51:02.500Z,52.80
2017-06-12T16:53:30.021Z,53.60
2017-06-12T16:55:57.554Z,53.60
2017-06-12T16:58:25.104Z,53.60
2017-06-12T17:00:53.393Z,54.10
2017-06-12T17:03:20.919Z,54.00
2017-06-12T17:05:48.446Z,54.40
2017-06-12T17:08:15.993Z,54.60
2017-06-12T17:10:43.870Z,54.90
2017-06-12T17:13:11.381Z,54.50
2017-06-12T17:15:38.878Z,55.50
2017-06-12T17:18:06.527Z,56.10
2017-06-12T17:20:34.029Z,56.80
2017-06-12T17:23:01.582Z,56.70
2017-06-12T17:25:29.104Z,56.90
2017-06-12T17:27:56.600Z,57.80
2017-06-12T17:30:24.125Z,56.50
2017-06-12T17:32:51.632Z,57.20
2017-06-12T17:35:19.189Z,56.60
2017-06-12T17:37:46.816Z,56.70
2017-06-12T17:40:14.347Z,57.40
2017-06-12T17:42:42.996Z,57.80
2017-06-12T17:45:10.500Z,58.40
2017-06-12T17:47:38.042Z,59.10
2017-06-12T17:50:05.545Z,59.00
2017-06-12T17:52:33.039Z,58.80
2017-06-12T17:55:00.548Z,58.80
2017-06-12T17:57:28.070Z,59.00
2017-06-12T17:59:55.588Z,59.20
2017-06-12T18:02:23.378Z,59.10
2017-06-12T18:04:50.881Z,58.60
2017-06-12T18:07:18.384Z,59.10
2017-06-12T18:09:46.175Z,59.10
2017-06-12T18:12:13.705Z,59.00
2017-06-12T18:14:41.226Z,59.40
2017-06-12T18:17:09.520Z,60.40
2017-06-12T18:19:37.058Z,60.30
2017-06-12T18:22:05.367Z,60.80
2017-06-12T18:24:32.948Z,60.80
2017-06-12T18:27:00.449Z,61.20
2017-06-12T18:29:28.754Z,61.40
2017-06-12T18:31:56.298Z,61.40
2017-06-12T18:34:24.732Z,62.20
2017-06-12T18:36:52.231Z,62.00
2017-06-12T18:39:20.501Z,62.70
2017-06-12T18:41:49.128Z,62.40
2017-06-12T18:44:16.649Z,62.50
2017-06-12T18:46:44.218Z,62.60
2017-06-12T18:49:12.484Z,63.10
2017-06-12T18:51:40.005Z,62.40
2017-06-12T18:54:07.528Z,62.40
2017-06-12T18:56:35.054Z,62.50
2017-06-12T18:59:02.887Z,62.70
2017-06-12T19:01:30.400Z,62.90
2017-06-12T19:03:58.728Z,63.10
2017-06-12T19:06:26.269Z,62.50
2017-06-12T19:08:53.787Z,63.40
2017-06-12T19:11:22.416Z,63.00
2017-06-12T19:13:49.932Z,62.90
2017-06-12T19:16:18.226Z,62.90
2017-06-12T19:18:46.545Z,63.00
2017-06-12T19:21:14.062Z,63.00
2017-06-12T19:23:42.378Z,63.00
2017-06-12T19:26:09.892Z,63.00
2017-06-12T19:28:37.397Z,62.30
2017-06-12T19:31:04.927Z,62.40
2017-06-12T19:33:32.449Z,62.60
2017-06-12T19:36:01.132Z,62.60
2017-06-12T19:38:28.637Z,62.60
2017-06-12T19:40:56.153Z,63.00
2017-06-12T19:43:23.662Z,62.90
2017-06-12T19:45:51.171Z,63.30
2017-06-12T19:48:18.965Z,63.20
2017-06-12T19:50:47.275Z,63.30
2017-06-12T19:53:14.782Z,63.30
2017-06-12T19:55:44.156Z,62.90
2017-06-12T19:58:11.677Z,63.50
2017-06-12T20:00:39.572Z,63.10
2017-06-12T20:03:07.075Z,64.20
2017-06-12T20:05:34.607Z,64.10
2017-06-12T20:08:02.846Z,64.30
2017-06-12T20:10:30.354Z,64.20
2017-06-12T20:12:58.007Z,64.30
2017-06-12T20:15:25.554Z,64.80
2017-06-12T20:17:53.086Z,65.30
2017-06-12T20:20:20.664Z,65.10
2017-06-12T20:22:48.231Z,65.30
2017-06-12T20:25:15.790Z,65.00
2017-06-12T20:27:43.309Z,65.30
2017-06-12T20:30:10.828Z,65.00
2017-06-12T20:32:38.357Z,64.90
2017-06-12T20:35:05.922Z,64.80
2017-06-12T20:37:33.485Z,64.80
2017-06-12T20:40:00.998Z,64.40
2017-06-12T20:42:28.527Z,64.70
2017-06-12T20:44:56.065Z,64.50
2017-06-12T20:47:23.650Z,64.30
2017-06-12T20:49:51.178Z,64.60
2017-06-12T20:52:21.051Z,64.80
2017-06-12T20:54:48.581Z,64.90
2017-06-12T20:57:16.107Z,64.70
2017-06-12T20:59:43.627Z,65.00
2017-06-12T21:02:11.198Z,64.50
2017-06-12T21:04:38.747Z,65.00
2017-06-12T21:07:06.375Z,65.40
2017-06-12T21:09:34.565Z,65.40
2017-06-12T21:12:02.115Z,65.70
2017-06-12T21:14:30.041Z,65.80
2017-06-12T21:16:57.589Z,65.60
2017-06-12T21:19:25.141Z,65.50
2017-06-12T21:21:52.662Z,65.70
2017-06-12T21:24:20.174Z,65.90
2017-06-12T21:26:47.702Z,66.00
2017-06-12T21:29:15.221Z,66.40
2017-06-12T21:31:43.579Z,66.50
2017-06-12T21:34:11.101Z,66.50
2017-06-12T21:36:38.588Z,66.90
2017-06-12T21:39:06.924Z,66.80
2017-06-12T21:41:34.440Z,66.80
2017-06-12T21:44:01.957Z,66.80
2017-06-12T21:46:29.479Z,67.50
2017-06-12T21:48:56.990Z,67.40
2017-06-12T21:51:24.506Z,67.90
2017-06-12T21:53:52.022Z,67.40
2017-06-12T21:56:19.536Z,66.80
2017-06-12T21:58:47.051Z,66.70
2017-06-12T22:01:14.549Z,66.70
2017-06-12T22:03:42.214Z,66.80
2017-06-12T22:06:09.727Z,66.80
2017-06-12T22:08:37.253Z,66.60
2017-06-12T22:11:04.805Z,66.70
2017-06-12T22:13:32.302Z,67.30
2017-06-12T22:16:00.594Z,67.60
2017-06-12T22:18:28.100Z,67.60
2017-06-12T22:20:55.598Z,67.70
2017-06-12T22:23:23.905Z,68.10
2017-06-12T22:25:51.424Z,68.00
2017-06-12T22:28:19.211Z,68.20
2017-06-12T22:30:46.718Z,68.20
2017-06-12T22:33:14.230Z,68.50
2017-06-12T22:35:41.738Z,68.40
2017-06-12T22:38:09.228Z,69.10
2017-06-12T22:40:36.777Z,69.60
2017-06-12T22:43:04.282Z,69.60
2017-06-12T22:45:31.801Z,69.60
2017-06-12T22:47:59.321Z,69.30
2017-06-12T22:50:26.822Z,69.80
2017-06-12T22:52:54.351Z,69.50
2017-06-12T22:55:21.848Z,69.20
2017-06-12T22:57:50.147Z,69.30
2017-06-12T23:00:17.669Z,69.20
2017-06-12T23:05:35.499Z,69.50
2017-06-12T23:08:03.010Z,68.60
2017-06-12T23:10:30.529Z,69.30
2017-06-12T23:12:58.048Z,69.00
2017-06-12T23:15:25.550Z,69.20
2017-06-12T23:17:53.181Z,68.90
2017-06-12T23:20:20.681Z,69.20
2017-06-12T23:22:53.963Z,69.30
2017-06-12T23:25:22.605Z,68.90
2017-06-12T23:27:53.923Z,69.30
2017-06-12T23:30:22.209Z,69.30
2017-06-12T23:32:49.719Z,69.30
2017-06-12T23:35:17.223Z,69.40
2017-06-12T23:37:44.735Z,69.40
2017-06-12T23:40:12.266Z,69.00
2017-06-12T23:42:39.764Z,69.70
2017-06-12T23:45:07.278Z,69.90
2017-06-12T23:47:34.803Z,69.90
2017-06-12T23:50:02.303Z,68.90
2017-06-12T23:52:29.834Z,69.60
2017-06-12T23:54:58.094Z,69.90
2017-06-12T23:57:25.593Z,69.80
2017-06-12T23:59:53.102Z,69.30
